createdAt,value
2023-05-04T00:01:58.147Z,59.45
2023-05-04T00:04:29.859Z,59.46
2023-05-04T00:06:59.021Z,59.49
2023-05-04T00:09:43.377Z,59.57
2023-05-04T00:12:19.383Z,59.64
2023-05-04T00:14:46.426Z,59.63
2023-05-04T00:17:14.003Z,59.64
2023-05-04T00:19:47.197Z,59.71
2023-05-04T00:22:17.033Z,59.69
2023-05-04T00:24:49.793Z,59.67
2023-05-04T00:27:17.809Z,59.64
2023-05-04T00:29:48.306Z,59.68
2023-05-04T00:32:18.040Z,59.69
2023-05-04T00:34:48.946Z,59.71
2023-05-04T00:37:19.296Z,59.58
2023-05-04T00:39:48.402Z,59.67
2023-05-04T00:42:16.581Z,59.81
2023-05-04T00:44:44.419Z,59.87
2023-05-04T00:47:11.562Z,59.97
2023-05-04T00:49:38.855Z,60.11
2023-05-04T00:52:06.635Z,60.16
2023-05-04T00:54:37.451Z,60.28
2023-05-04T01:00:58.542Z,60.67
2023-05-04T01:03:28.097Z,60.66
2023-05-04T01:06:11.840Z,60.83
2023-05-04T01:09:00.381Z,60.86
2023-05-04T01:12:00.030Z,60.95
2023-05-04T01:14:30.960Z,60.96
2023-05-04T01:17:00.264Z,61.08
2023-05-04T01:19:30.613Z,61.26
2023-05-04T01:21:58.623Z,61.37
2023-05-04T01:24:27.371Z,61.39
2023-05-04T01:27:21.003Z,61.52
2023-05-04T01:30:18.638Z,61.69
2023-05-04T01:32:47.196Z,61.89
2023-05-04T01:35:18.202Z,61.99
2023-05-04T01:37:48.026Z,62.15
2023-05-04T01:40:16.927Z,62.18
2023-05-04T01:42:45.009Z,62.21
2023-05-04T01:45:13.434Z,62.32
2023-05-04T01:47:42.744Z,62.36
2023-05-04T01:50:11.085Z,62.53
2023-05-04T01:52:38.399Z,62.56
2023-05-04T01:55:05.732Z,62.68
2023-05-04T01:57:33.696Z,62.69
2023-05-04T02:00:02.323Z,62.72
2023-05-04T02:02:42.916Z,62.79
2023-05-04T02:05:10.350Z,62.91
2023-05-04T02:07:37.402Z,63.02
2023-05-04T02:10:04.901Z,63.35
2023-05-04T02:12:32.508Z,63.48
2023-05-04T02:14:59.544Z,63.65
2023-05-04T02:17:26.444Z,63.73
2023-05-04T02:19:54.181Z,64.02
2023-05-04T02:22:21.176Z,64.15
2023-05-04T02:24:48.861Z,64.40
2023-05-04T02:27:17.544Z,64.42
2023-05-04T02:29:45.754Z,64.61
2023-05-04T02:32:12.945Z,64.68
2023-05-04T02:34:40.153Z,64.54
2023-05-04T02:37:07.704Z,64.64
2023-05-04T02:39:36.000Z,64.72
2023-05-04T02:42:03.084Z,64.76
2023-05-04T02:44:31.247Z,64.79
2023-05-04T02:46:58.479Z,64.71
2023-05-04T02:49:27.034Z,64.73
2023-05-04T02:51:54.626Z,64.77
2023-05-04T02:54:21.857Z,64.72
2023-05-04T02:56:48.892Z,64.84
2023-05-04T02:59:16.089Z,64.86
2023-05-04T03:01:44.946Z,64.97
2023-05-04T03:04:11.970Z,64.99
2023-05-04T03:06:42.028Z,65.17
2023-05-04T03:09:13.719Z,65.26
2023-05-04T03:11:42.300Z,65.37
2023-05-04T03:14:10.269Z,65.45
2023-05-04T03:16:39.763Z,65.57
2023-05-04T03:19:07.981Z,65.57
2023-05-04T03:21:43.961Z,65.49
2023-05-04T03:24:12.542Z,65.51
2023-05-04T03:26:41.311Z,65.50
2023-05-04T03:29:09.240Z,65.37
2023-05-04T03:31:37.060Z,65.30
2023-05-04T03:34:04.192Z,65.16
2023-05-04T03:36:32.566Z,65.16
2023-05-04T03:39:02.411Z,65.08
2023-05-04T03:41:30.144Z,65.06
2023-05-04T03:44:00.844Z,64.99
2023-05-04T03:46:31.241Z,64.85
2023-05-04T03:49:00.389Z,64.83
2023-05-04T03:51:30.931Z,64.76
2023-05-04T03:53:59.063Z,64.74
2023-05-04T03:56:26.164Z,64.72
2023-05-04T03:58:53.149Z,64.71
2023-05-04T04:01:24.038Z,64.58
2023-05-04T04:03:51.384Z,64.61
2023-05-04T04:06:19.947Z,64.85
2023-05-04T04:08:47.004Z,64.80
2023-05-04T04:11:15.314Z,64.82
2023-05-04T04:13:42.205Z,64.72
2023-05-04T04:16:09.979Z,64.46
2023-05-04T04:18:37.080Z,64.21
2023-05-04T04:21:05.635Z,63.88
2023-05-04T04:23:35.517Z,63.70
2023-05-04T04:26:06.212Z,63.64
2023-05-04T04:28:33.785Z,63.48
2023-05-04T04:31:06.322Z,63.22
2023-05-04T04:33:36.526Z,63.02
2023-05-04T04:36:04.134Z,62.79
2023-05-04T04:38:37.581Z,62.27
2023-05-04T04:41:05.458Z,61.97
2023-05-04T04:43:34.397Z,61.61
2023-05-04T04:46:03.602Z,61.23
2023-05-04T04:48:31.713Z,60.73
2023-05-04T04:50:59.616Z,60.32
2023-05-04T04:53:27.646Z,59.86
2023-05-04T04:56:02.185Z,59.30
2023-05-04T04:58:33.833Z,59.18
2023-05-04T05:01:09.266Z,59.55
2023-05-04T05:03:36.541Z,59.90
2023-05-04T05:06:05.179Z,59.64
2023-05-04T05:08:42.190Z,59.20
2023-05-04T05:17:13.407Z,58.37
2023-05-04T05:23:50.929Z,57.69
2023-05-04T05:26:17.895Z,57.56
2023-05-04T05:28:44.860Z,57.29
2023-05-04T05:31:11.908Z,56.91
2023-05-04T05:33:46.238Z,56.68
2023-05-04T05:36:14.882Z,56.56
2023-05-04T05:38:43.961Z,56.49
2023-05-04T05:41:15.200Z,56.39
2023-05-04T05:43:42.815Z,56.21
2023-05-04T05:46:12.191Z,56.02
2023-05-04T05:48:39.813Z,55.80
2023-05-04T05:51:07.147Z,55.33
2023-05-04T05:53:39.571Z,54.86
2023-05-04T05:56:08.500Z,54.56
2023-05-04T05:58:36.900Z,54.32
2023-05-04T06:01:06.630Z,53.91
2023-05-04T06:03:38.976Z,54.06
2023-05-04T06:06:07.347Z,54.05
2023-05-04T06:08:34.521Z,53.87
2023-05-04T06:11:02.637Z,53.36
2023-05-04T06:13:31.810Z,52.84
2023-05-04T06:15:59.485Z,52.54
2023-05-04T06:18:27.611Z,52.42
2023-05-04T06:21:00.439Z,51.99
2023-05-04T06:23:29.714Z,51.57
2023-05-04T06:25:57.999Z,51.09
2023-05-04T06:28:26.082Z,50.79
2023-05-04T06:30:56.539Z,50.62
2023-05-04T06:33:23.710Z,50.52
2023-05-04T06:35:57.173Z,50.40
2023-05-04T06:38:30.794Z,50.09
2023-05-04T06:40:58.411Z,50.02
2023-05-04T06:43:29.212Z,50.15
2023-05-04T06:46:01.433Z,50.24
2023-05-04T06:48:32.726Z,50.36
2023-05-04T06:51:01.481Z,50.45
2023-05-04T06:53:31.636Z,50.13
2023-05-04T06:55:58.904Z,50.16
2023-05-04T06:58:26.225Z,50.07
2023-05-04T07:00:53.283Z,49.85
2023-05-04T07:03:21.949Z,49.66
2023-05-04T07:05:53.554Z,49.45
2023-05-04T07:08:29.311Z,48.76
2023-05-04T07:10:57.883Z,48.61
2023-05-04T07:13:29.113Z,48.43
2023-05-04T07:15:57.021Z,47.92
2023-05-04T07:18:24.352Z,47.13
2023-05-04T07:21:26.751Z,46.57
2023-05-04T07:23:57.251Z,46.65
2023-05-04T07:26:26.832Z,46.78
2023-05-04T07:28:54.874Z,46.71
2023-05-04T07:31:22.561Z,46.49
2023-05-04T07:33:52.363Z,46.16
2023-05-04T07:36:20.879Z,46.15
2023-05-04T07:39:03.806Z,46.24
2023-05-04T07:41:40.889Z,45.99
2023-05-04T07:44:08.398Z,45.67
2023-05-04T07:46:38.026Z,44.98
2023-05-04T07:49:06.185Z,45.06
2023-05-04T07:51:33.325Z,44.68
2023-05-04T07:54:01.136Z,43.62
2023-05-04T07:56:27.977Z,43.36
2023-05-04T07:58:55.597Z,43.45
2023-05-04T08:01:22.393Z,43.92
2023-05-04T08:03:55.047Z,44.13
2023-05-04T08:06:27.004Z,43.81
2023-05-04T08:11:41.921Z,44.93
2023-05-04T08:14:08.918Z,44.51
2023-05-04T08:16:39.345Z,44.22
2023-05-04T08:19:06.567Z,43.80
2023-05-04T08:21:33.510Z,43.30
2023-05-04T08:24:03.138Z,43.20
2023-05-04T08:26:32.087Z,42.73
2023-05-04T08:31:49.240Z,42.39
2023-05-04T08:34:17.897Z,42.75
2023-05-04T08:36:50.423Z,42.63
2023-05-04T08:39:19.327Z,42.90
2023-05-04T08:41:50.310Z,42.47
2023-05-04T08:44:21.457Z,42.18
2023-05-04T08:46:54.431Z,41.40
2023-05-04T08:49:27.497Z,41.16
2023-05-04T08:51:59.511Z,41.17
2023-05-04T08:54:32.170Z,41.12
2023-05-04T08:57:11.297Z,40.89
2023-05-04T09:00:11.607Z,40.83
2023-05-04T09:02:49.863Z,40.63
2023-05-04T09:05:17.804Z,40.53
2023-05-04T09:07:48.325Z,39.92
2023-05-04T09:10:15.581Z,39.38
2023-05-04T09:12:44.815Z,39.08
2023-05-04T09:15:22.426Z,38.34
2023-05-04T09:18:13.712Z,37.60
2023-05-04T09:20:46.640Z,37.47
2023-05-04T09:23:17.378Z,37.71
2023-05-04T09:25:48.286Z,37.64
2023-05-04T09:28:19.442Z,37.40
2023-05-04T09:31:08.095Z,37.68
2023-05-04T09:33:43.531Z,37.67
2023-05-04T09:36:26.872Z,37.41
2023-05-04T09:38:54.816Z,37.26
2023-05-04T09:41:32.032Z,37.30
2023-05-04T09:43:59.345Z,37.08
2023-05-04T09:46:27.777Z,36.75
2023-05-04T09:48:56.508Z,36.72
2023-05-04T09:51:25.917Z,36.44
2023-05-04T09:53:53.837Z,36.49
2023-05-04T09:56:47.320Z,36.56
2023-05-04T09:59:14.539Z,36.02
2023-05-04T10:01:44.967Z,35.85
2023-05-04T10:04:12.615Z,35.89
2023-05-04T10:06:42.758Z,35.81
2023-05-04T10:09:10.130Z,35.59
2023-05-04T10:11:41.947Z,35.01
2023-05-04T10:14:13.085Z,35.12
2023-05-04T10:20:32.533Z,34.03
2023-05-04T10:23:21.391Z,33.75
2023-05-04T10:26:44.853Z,33.81
2023-05-04T10:29:23.708Z,33.51
2023-05-04T10:31:51.643Z,33.54
2023-05-04T10:34:36.293Z,33.21
2023-05-04T10:37:04.349Z,32.60
2023-05-04T10:39:33.763Z,33.01
2023-05-04T10:42:07.504Z,32.76
2023-05-04T10:44:36.929Z,32.85
2023-05-04T10:47:09.913Z,32.74
2023-05-04T10:49:38.954Z,31.78
2023-05-04T10:52:17.842Z,31.33
2023-05-04T10:54:46.505Z,30.95
2023-05-04T10:57:17.036Z,31.62
2023-05-04T10:59:57.602Z,31.07
2023-05-04T11:02:26.368Z,29.72
2023-05-04T11:05:09.805Z,28.99
2023-05-04T11:07:37.998Z,28.78
2023-05-04T11:10:40.283Z,28.71
2023-05-04T11:13:12.026Z,28.78
2023-05-04T11:15:46.586Z,28.50
2023-05-04T11:18:13.803Z,28.21
2023-05-04T11:20:41.977Z,28.25
2023-05-04T11:23:12.141Z,28.53
2023-05-04T11:25:39.132Z,28.62
2023-05-04T11:28:08.623Z,28.72
2023-05-04T11:30:41.090Z,28.99
2023-05-04T11:33:13.658Z,28.56
2023-05-04T11:35:42.977Z,28.52
2023-05-04T11:38:10.232Z,27.96
2023-05-04T11:40:40.643Z,27.74
2023-05-04T11:43:10.323Z,27.60
2023-05-04T11:48:21.625Z,26.98
2023-05-04T11:50:49.877Z,26.99
2023-05-04T11:53:22.719Z,27.13
2023-05-04T11:56:14.991Z,27.71
2023-05-04T11:58:58.252Z,27.81
2023-05-04T12:01:26.495Z,26.33
2023-05-04T12:03:54.568Z,25.37
2023-05-04T12:06:32.143Z,25.39
2023-05-04T12:09:06.058Z,24.52
2023-05-04T12:11:34.490Z,24.13
2023-05-04T12:14:05.306Z,23.80
2023-05-04T12:16:35.508Z,23.34
2023-05-04T12:19:05.045Z,22.15
2023-05-04T12:24:16.801Z,20.70
2023-05-04T12:26:43.591Z,19.95
2023-05-04T12:29:10.554Z,18.50
2023-05-04T12:31:37.412Z,17.53
2023-05-04T12:34:04.329Z,17.24
2023-05-04T12:36:32.121Z,17.87
2023-05-04T12:38:59.206Z,17.97
2023-05-04T12:41:28.716Z,18.20
2023-05-04T12:44:07.890Z,18.82
2023-05-04T12:46:35.748Z,19.21
2023-05-04T12:49:03.225Z,19.44
2023-05-04T12:51:34.007Z,18.87
2023-05-04T12:54:00.760Z,18.78
2023-05-04T12:56:27.899Z,19.00
2023-05-04T12:58:56.400Z,19.15
2023-05-04T13:01:23.473Z,19.21
2023-05-04T13:03:51.336Z,18.67
2023-05-04T13:06:19.368Z,18.34
2023-05-04T13:08:51.695Z,18.49
2023-05-04T13:11:21.130Z,18.84
2023-05-04T13:13:51.566Z,18.26
2023-05-04T13:16:18.815Z,18.14
2023-05-04T13:18:45.691Z,18.35
2023-05-04T13:21:13.332Z,18.27
2023-05-04T13:23:44.417Z,18.42
2023-05-04T13:26:12.043Z,18.77
2023-05-04T13:28:39.479Z,18.94
2023-05-04T13:31:08.518Z,18.68
2023-05-04T13:33:39.190Z,18.52
2023-05-04T13:36:06.502Z,18.18
2023-05-04T13:38:33.781Z,18.23
2023-05-04T13:41:02.320Z,18.67
2023-05-04T13:43:30.318Z,18.42
2023-05-04T13:46:03.648Z,18.24
2023-05-04T13:48:33.913Z,18.40
2023-05-04T13:51:03.242Z,18.83
2023-05-04T13:53:32.427Z,19.57
2023-05-04T13:56:02.471Z,20.18
2023-05-04T13:58:30.123Z,20.58
2023-05-04T14:01:00.623Z,19.79
2023-05-04T14:03:32.493Z,21.53
2023-05-04T14:06:00.571Z,23.46
2023-05-04T14:08:29.340Z,24.85
2023-05-04T14:10:57.225Z,29.13
2023-05-04T14:13:24.373Z,31.41
2023-05-04T14:15:53.147Z,33.24
2023-05-04T14:18:20.576Z,34.73
2023-05-04T14:20:49.707Z,35.93
2023-05-04T14:23:16.963Z,36.99
2023-05-04T14:25:51.886Z,38.04
2023-05-04T14:28:18.973Z,39.12
2023-05-04T14:30:45.889Z,39.77
2023-05-04T14:33:15.756Z,40.40
2023-05-04T14:35:47.861Z,40.95
2023-05-04T14:38:15.488Z,41.34
2023-05-04T14:40:42.510Z,41.88
2023-05-04T14:43:09.580Z,42.12
2023-05-04T14:45:37.188Z,42.34
2023-05-04T14:48:06.549Z,42.77
2023-05-04T14:50:34.964Z,43.23
2023-05-04T14:53:02.545Z,43.33
2023-05-04T14:55:37.126Z,43.86
2023-05-04T14:58:04.262Z,44.31
2023-05-04T15:00:37.709Z,44.56
2023-05-04T15:03:05.088Z,44.81
2023-05-04T15:05:35.312Z,45.11
2023-05-04T15:08:06.171Z,45.47
2023-05-04T15:10:36.888Z,45.61
2023-05-04T15:13:05.874Z,45.64
2023-05-04T15:15:33.075Z,45.96
2023-05-04T15:18:16.944Z,46.21
2023-05-04T15:20:46.866Z,46.32
2023-05-04T15:26:10.125Z,46.97
2023-05-04T15:28:45.147Z,47.30
2023-05-04T15:31:20.759Z,47.71
2023-05-04T15:33:50.016Z,47.93
2023-05-04T15:36:23.169Z,48.46
2023-05-04T15:38:52.582Z,48.95
2023-05-04T15:41:20.147Z,49.25
2023-05-04T15:44:15.472Z,49.60
2023-05-04T15:46:47.058Z,49.98
2023-05-04T15:49:16.217Z,50.18
2023-05-04T15:51:47.563Z,50.49
2023-05-04T15:54:18.252Z,50.68
2023-05-04T15:56:49.722Z,50.89
2023-05-04T15:59:18.298Z,51.02
2023-05-04T16:01:46.844Z,51.15
2023-05-04T16:04:15.514Z,51.42
2023-05-04T16:06:43.223Z,51.43
2023-05-04T16:09:13.013Z,51.44
2023-05-04T16:11:40.163Z,51.22
2023-05-04T16:14:15.491Z,51.34
2023-05-04T16:16:53.415Z,51.35
2023-05-04T16:24:53.828Z,51.92
2023-05-04T16:27:23.810Z,51.96
2023-05-04T16:29:51.152Z,52.35
2023-05-04T16:32:23.049Z,52.54
2023-05-04T16:34:50.401Z,52.77
2023-05-04T16:37:20.268Z,53.10
2023-05-04T16:39:53.439Z,53.31
2023-05-04T16:42:29.092Z,53.57
2023-05-04T16:45:01.923Z,53.86
2023-05-04T16:47:29.663Z,53.96
2023-05-04T16:49:56.735Z,54.16
2023-05-04T16:52:23.901Z,54.51
2023-05-04T16:54:50.891Z,54.73
2023-05-04T16:57:17.817Z,54.93
2023-05-04T16:59:45.813Z,55.09
2023-05-04T17:02:15.125Z,55.37
2023-05-04T17:04:43.477Z,55.42
2023-05-04T17:07:11.323Z,55.78
2023-05-04T17:09:39.819Z,55.90
2023-05-04T17:12:07.214Z,56.01
2023-05-04T17:14:36.378Z,56.05
2023-05-04T17:17:12.101Z,56.07
2023-05-04T17:19:43.605Z,55.93
2023-05-04T17:22:44.436Z,55.86
2023-05-04T17:25:12.615Z,55.87
2023-05-04T17:27:40.916Z,55.70
2023-05-04T17:30:13.142Z,55.70
2023-05-04T17:38:10.686Z,55.68
2023-05-04T17:40:38.685Z,55.86
2023-05-04T17:43:05.616Z,56.21
2023-05-04T17:45:34.513Z,56.54
2023-05-04T19:14:49.328Z,52.27
2023-05-04T19:17:17.824Z,52.26
2023-05-04T19:19:44.645Z,52.15
2023-05-04T19:22:12.747Z,51.99
2023-05-04T19:24:39.650Z,51.90
2023-05-04T19:27:08.917Z,51.85
2023-05-04T19:29:38.607Z,51.73
2023-05-04T19:32:19.850Z,51.66
2023-05-04T19:34:47.823Z,51.85
2023-05-04T19:37:14.870Z,51.90
2023-05-04T19:39:41.799Z,51.90
2023-05-04T19:42:08.687Z,51.88
2023-05-04T19:44:35.555Z,51.96
2023-05-04T19:47:03.291Z,52.19
2023-05-04T19:49:31.355Z,52.11
2023-05-04T19:51:58.173Z,52.08
2023-05-04T19:54:25.015Z,52.09
2023-05-04T19:56:53.132Z,52.08
2023-05-04T19:59:19.939Z,52.14
2023-05-04T20:01:46.840Z,52.02
2023-05-04T20:04:13.740Z,52.25
2023-05-04T20:06:40.732Z,52.45
2023-05-04T20:09:07.677Z,52.51
2023-05-04T20:11:35.581Z,52.51
2023-05-04T20:14:02.433Z,52.48
2023-05-04T20:16:31.626Z,52.44
2023-05-04T20:18:59.254Z,52.42
2023-05-04T20:21:27.726Z,52.47
2023-05-04T20:23:54.818Z,52.60
2023-05-04T20:26:22.973Z,52.78
2023-05-04T20:28:50.863Z,52.95
2023-05-04T20:31:19.289Z,52.82
2023-05-04T20:33:46.131Z,52.80
2023-05-04T20:36:12.977Z,52.94
2023-05-04T20:38:39.806Z,52.89
2023-05-04T20:41:08.970Z,52.88
2023-05-04T20:46:18.942Z,51.62
2023-05-04T20:48:46.021Z,51.34
2023-05-04T20:51:15.075Z,51.26
2023-05-04T20:53:42.554Z,51.37
2023-05-04T20:56:09.485Z,51.41
2023-05-04T20:58:39.758Z,51.32
2023-05-04T21:01:07.624Z,51.13
2023-05-04T21:03:36.163Z,51.22
2023-05-04T21:06:04.633Z,51.16
2023-05-04T21:08:32.350Z,50.94
2023-05-04T21:10:59.637Z,50.69
2023-05-04T21:13:26.663Z,50.63
2023-05-04T21:15:53.690Z,50.52
2023-05-04T21:18:20.980Z,50.31
2023-05-04T21:20:48.562Z,50.22
2023-05-04T21:23:16.327Z,50.12
2023-05-04T21:25:45.089Z,50.25
2023-05-04T21:28:12.041Z,50.27
2023-05-04T21:30:42.091Z,50.32
2023-05-04T21:33:09.519Z,50.31
2023-05-04T21:35:36.419Z,50.11
2023-05-04T21:38:05.895Z,50.08
2023-05-04T21:40:33.110Z,50.01
2023-05-04T21:43:01.515Z,50.05
2023-05-04T21:45:32.065Z,49.97
2023-05-04T21:47:59.580Z,49.89
2023-05-04T21:50:29.005Z,49.99
2023-05-04T21:52:55.855Z,50.05
2023-05-04T21:55:22.824Z,50.05
2023-05-04T21:57:49.975Z,49.92
2023-05-04T22:00:19.410Z,49.85
2023-05-04T22:02:51.565Z,49.89
2023-05-04T22:05:22.780Z,49.92
2023-05-04T22:08:10.809Z,49.86
2023-05-04T22:17:08.526Z,50.12
2023-05-04T22:19:43.030Z,50.20
2023-05-04T22:22:12.505Z,50.26
2023-05-04T22:27:32.839Z,50.40
2023-05-04T22:30:00.827Z,50.65
2023-05-04T22:32:28.032Z,50.77
2023-05-04T22:34:55.758Z,50.94
2023-05-04T22:37:24.113Z,50.96
2023-05-04T22:39:53.703Z,50.99
2023-05-04T22:42:21.419Z,50.98
2023-05-04T22:44:48.907Z,51.04
2023-05-04T22:47:17.410Z,50.97
2023-05-04T22:52:32.019Z,51.11
2023-05-04T22:55:00.011Z,51.28
2023-05-04T22:57:32.162Z,51.51
2023-05-04T22:59:59.776Z,51.66
2023-05-04T23:02:28.178Z,51.70
2023-05-04T23:04:56.925Z,51.97
2023-05-04T23:07:36.193Z,51.93
2023-05-04T23:10:04.368Z,52.12
2023-05-04T23:12:37.574Z,52.21
2023-05-04T23:15:24.392Z,52.36
2023-05-04T23:17:59.621Z,52.50
2023-05-04T23:27:04.111Z,52.90
2023-05-04T23:29:35.179Z,52.93
2023-05-04T23:32:06.568Z,52.88
2023-05-04T23:34:43.097Z,52.80
2023-05-04T23:37:16.222Z,52.79
2023-05-04T23:39:53.481Z,52.89
2023-05-04T23:42:33.809Z,52.78
2023-05-04T23:45:04.690Z,52.91
2023-05-04T23:47:35.993Z,53.26
2023-05-04T23:50:04.708Z,53.27
2023-05-04T23:52:46.026Z,53.35
2023-05-04T23:55:17.018Z,53.29
2023-05-04T23:57:59.119Z,53.29
